Time;durP1;ratioP1;P1;durP2;ratioP2;P2;SDS_P1;SDS_P2;PMS_P1;PMS_P2;Temp;Humidity;BMP_temperature;BMP_pressure;BME280_temperature;BME280_humidity;BME280_pressure;Samples;Min_cycle;Max_cycle;Signal;HPM_P1;HPM_P2
2023/08/28 00:00:34;;;;;;;11.15;7.22;;;11.80;99.90;;;12.97;100.00;100011.59;4943721;28;20110;-76
2023/08/28 00:03:00;;;;;;;9.77;7.15;;;11.90;99.90;;;12.95;100.00;100016.50;4944289;29;20038;-76
2023/08/28 00:05:30;;;;;;;12.95;8.25;;;11.90;99.90;;;13.00;100.00;100013.88;4946105;29;20039;-76
2023/08/28 00:07:56;;;;;;;10.85;7.07;;;11.90;99.90;;;13.02;100.00;100019.06;4943583;28;20114;-76
2023/08/28 00:10:23;;;;;;;9.77;6.72;;;11.80;99.90;;;12.96;100.00;100023.63;4944780;28;20039;-76
2023/08/28 00:12:49;;;;;;;8.50;6.72;;;11.90;99.90;;;12.94;100.00;100026.63;4941723;28;20035;-76
2023/08/28 00:15:14;;;;;;;10.88;7.80;;;11.80;99.90;;;12.88;100.00;100024.03;4949321;29;20027;-75
2023/08/28 00:17:41;;;;;;;11.90;8.48;;;11.80;99.90;;;12.89;100.00;100033.91;4941603;29;20113;-75
2023/08/28 00:20:08;;;;;;;12.07;7.93;;;11.80;99.90;;;12.84;100.00;100028.38;4945895;28;20472;-75
2023/08/28 00:22:37;;;;;;;10.93;8.30;;;11.80;99.90;;;12.84;100.00;100018.22;4940281;29;20046;-75
2023/08/28 00:25:05;;;;;;;14.35;9.07;;;11.80;99.90;;;12.84;100.00;100007.28;4946561;29;20032;-77
2023/08/28 00:27:31;;;;;;;15.00;9.25;;;11.80;99.90;;;12.86;100.00;99996.09;4940428;29;20106;-76
2023/08/28 00:29:57;;;;;;;13.93;9.07;;;11.80;99.90;;;12.90;100.00;99989.03;4948137;29;20035;-76
2023/08/28 00:32:23;;;;;;;13.65;9.40;;;11.80;99.90;;;12.90;100.00;99994.50;4937026;29;20135;-76
2023/08/28 00:34:50;;;;;;;12.40;8.70;;;11.80;99.90;;;12.85;100.00;100003.47;4951429;29;20368;-76
2023/08/28 00:37:16;;;;;;;10.93;9.10;;;11.80;99.90;;;12.86;100.00;100001.56;4964529;28;20038;-75
2023/08/28 00:39:41;;;;;;;12.65;8.93;;;11.90;99.90;;;12.89;100.00;100007.38;4955227;29;20047;-75
2023/08/28 00:42:07;;;;;;;12.82;8.93;;;11.80;99.90;;;12.87;100.00;100012.28;4944005;28;20544;-76
2023/08/28 00:44:33;;;;;;;10.93;8.25;;;11.90;99.90;;;12.95;100.00;100008.28;4953217;29;20039;-76
2023/08/28 00:47:00;;;;;;;11.75;8.88;;;11.90;99.90;;;12.93;100.00;100024.13;4951042;29;20039;-76
2023/08/28 00:49:27;;;;;;;13.10;8.95;;;11.80;99.90;;;12.88;100.00;100018.56;4959002;28;20399;-76
2023/08/28 00:51:53;;;;;;;13.25;8.93;;;11.80;99.90;;;12.89;100.00;100032.03;4947921;29;20031;-75
2023/08/28 00:54:19;;;;;;;10.70;8.93;;;11.80;99.90;;;12.86;100.00;100034.41;4944191;29;20043;-76
2023/08/28 00:56:47;;;;;;;12.63;7.63;;;11.80;99.90;;;12.92;100.00;100034.25;4937384;29;20059;-76
2023/08/28 00:59:16;;;;;;;15.38;8.63;;;11.80;99.90;;;12.87;100.00;100044.28;4941622;29;20373;-76
2023/08/28 01:01:43;;;;;;;12.87;8.40;;;11.80;99.90;;;12.90;100.00;100039.16;4944050;29;20194;-76
2023/08/28 01:04:09;;;;;;;11.38;8.50;;;11.80;99.90;;;12.86;100.00;100048.09;4936490;29;20456;-75
2023/08/28 01:06:57;;;;;;;10.75;7.88;;;11.80;99.90;;;12.86;100.00;100054.41;4936185;29;20051;-75
2023/08/28 01:09:55;;;;;;;11.50;7.93;;;11.70;99.90;;;12.80;100.00;100060.84;4958268;28;20040;-76
2023/08/28 01:12:53;;;;;;;11.93;7.97;;;11.80;99.90;;;12.86;100.00;100065.34;4950169;29;20050;-75
2023/08/28 01:15:24;;;;;;;20.38;9.00;;;11.80;99.90;;;12.87;100.00;100055.25;4943606;29;20078;-76
2023/08/28 01:18:01;;;;;;;13.63;8.88;;;11.80;99.90;;;12.86;100.00;100053.56;4942304;29;20039;-76
2023/08/28 01:20:30;;;;;;;11.27;8.27;;;11.80;99.90;;;12.89;100.00;100056.66;4945608;28;20040;-76
2023/08/28 01:23:27;;;;;;;13.43;9.48;;;11.80;99.90;;;12.89;100.00;100047.59;4946428;29;20032;-76
2023/08/28 01:25:56;;;;;;;14.20;8.38;;;11.80;99.90;;;12.88;100.00;100046.78;4936029;29;20036;-76
2023/08/28 01:28:25;;;;;;;11.18;8.73;;;11.90;99.90;;;12.90;100.00;100058.31;4945863;29;20028;-77
2023/08/28 01:30:51;;;;;;;12.73;8.45;;;11.90;99.90;;;12.94;100.00;100064.13;4944695;29;20087;-77
2023/08/28 01:33:18;;;;;;;10.90;8.60;;;11.90;99.90;;;12.95;100.00;100063.88;4936389;29;20047;-75
2023/08/28 01:36:12;;;;;;;11.18;8.48;;;11.90;99.90;;;12.94;100.00;100064.97;4943643;29;20035;-76
2023/08/28 01:39:14;;;;;;;11.60;8.40;;;11.90;99.90;;;12.91;100.00;100068.19;4949953;28;20042;-76
2023/08/28 01:41:40;;;;;;;13.40;8.88;;;11.90;99.90;;;12.89;100.00;100075.81;4950817;29;20097;-75
2023/08/28 01:44:10;;;;;;;13.15;9.05;;;11.90;99.90;;;12.89;100.00;100067.63;4942875;29;20135;-75
2023/08/28 01:46:38;;;;;;;13.65;9.05;;;11.80;99.90;;;12.85;100.00;100068.34;4965502;28;20035;-76
2023/08/28 01:49:05;;;;;;;12.40;9.30;;;11.80;99.90;;;12.80;100.00;100055.38;4937731;29;20472;-76
2023/08/28 01:51:31;;;;;;;13.75;10.45;;;11.80;99.90;;;12.87;100.00;100057.97;4938331;29;20086;-76
2023/08/28 01:53:56;;;;;;;12.55;9.10;;;11.90;99.90;;;12.89;100.00;100066.78;4935142;29;20088;-76
2023/08/28 01:56:26;;;;;;;13.90;9.27;;;11.90;99.90;;;12.80;100.00;100064.44;4941588;29;20040;-76
2023/08/28 01:58:58;;;;;;;12.95;10.20;;;11.90;99.90;;;12.79;100.00;100057.31;4945558;29;20039;-76
2023/08/28 02:01:26;;;;;;;14.88;9.98;;;11.90;99.90;;;12.86;100.00;100059.06;4937846;29;20063;-75
2023/08/28 02:03:52;;;;;;;14.38;10.23;;;11.90;99.90;;;12.82;100.00;100055.97;4946252;28;20636;-75
2023/08/28 02:06:18;;;;;;;16.13;10.25;;;11.80;99.90;;;12.84;100.00;100058.47;4949661;28;20492;-76
2023/08/28 02:08:45;;;;;;;15.30;10.02;;;11.80;99.90;;;12.74;100.00;100061.84;4948827;29;20042;-76
2023/08/28 02:11:11;;;;;;;17.50;10.57;;;11.80;99.90;;;12.78;100.00;100068.50;4944547;28;20043;-77
2023/08/28 02:13:37;;;;;;;14.45;10.85;;;11.80;99.90;;;12.76;100.00;100070.66;4935351;29;20036;-76
2023/08/28 02:16:03;;;;;;;14.02;10.55;;;11.70;99.90;;;12.80;100.00;100071.81;4956547;28;20043;-76
2023/08/28 02:18:32;;;;;;;19.35;11.25;;;11.70;99.90;;;12.73;100.00;100062.94;4948020;29;20374;-76
2023/08/28 02:20:59;;;;;;;16.52;11.50;;;11.70;99.90;;;12.72;100.00;100061.25;4935047;29;20032;-76
2023/08/28 02:23:28;;;;;;;16.85;11.98;;;11.70;99.90;;;12.67;100.00;100070.19;4946530;29;20035;-76
2023/08/28 02:25:55;;;;;;;18.35;12.90;;;11.60;99.90;;;12.66;100.00;100068.53;4946070;29;20042;-76
2023/08/28 02:28:21;;;;;;;17.23;12.38;;;11.60;99.90;;;12.66;100.00;100066.66;4952514;28;20106;-76
2023/08/28 02:30:47;;;;;;;18.33;13.07;;;11.60;99.90;;;12.68;100.00;100065.56;4957126;28;20032;-77
2023/08/28 02:33:14;;;;;;;19.50;13.40;;;11.60;99.90;;;12.61;100.00;100073.94;4947656;28;20222;-76
2023/08/28 02:35:40;;;;;;;21.92;14.05;;;11.60;99.90;;;12.62;100.00;100075.59;4943657;28;20048;-77
2023/08/28 02:38:08;;;;;;;21.00;13.88;;;11.60;99.90;;;12.61;100.00;100052.88;4947320;29;20024;-76
2023/08/28 02:40:37;;;;;;;21.13;14.32;;;11.60;99.90;;;12.63;100.00;100058.94;4944379;28;20043;-76
2023/08/28 02:43:09;;;;;;;22.08;14.23;;;11.60;99.90;;;12.62;100.00;100048.22;4938008;29;20031;-77
2023/08/28 02:45:41;;;;;;;22.10;15.25;;;11.50;99.90;;;12.59;100.00;100045.97;4945934;28;20143;-77
2023/08/28 02:48:11;;;;;;;22.10;15.60;;;11.60;99.90;;;12.58;100.00;100044.31;4938185;29;20035;-77
2023/08/28 02:50:37;;;;;;;21.60;14.80;;;11.60;99.90;;;12.49;100.00;100031.03;4934064;29;20035;-77
2023/08/28 02:53:03;;;;;;;22.08;14.85;;;11.60;99.90;;;12.62;100.00;100056.44;4941355;29;20039;-77
2023/08/28 02:55:40;;;;;;;18.45;14.10;;;11.50;99.90;;;12.59;100.00;100054.19;4949946;29;20035;-77
2023/08/28 02:58:08;;;;;;;21.55;15.45;;;11.50;99.90;;;12.57;100.00;100034.44;4943758;29;20094;-77
2023/08/28 03:00:41;;;;;;;20.45;15.65;;;11.50;99.90;;;12.57;100.00;100035.25;4934866;29;20075;-77
2023/08/28 03:03:08;;;;;;;27.05;16.88;;;11.50;99.90;;;12.54;100.00;100034.94;4943311;28;20039;-76
2023/08/28 03:05:34;;;;;;;23.13;16.38;;;11.40;99.90;;;12.52;100.00;100043.38;4943800;28;20121;-77
2023/08/28 03:08:00;;;;;;;24.02;16.88;;;11.30;99.90;;;12.45;100.00;100043.53;4934668;29;20126;-77
2023/08/28 03:10:25;;;;;;;24.42;17.70;;;11.30;99.90;;;12.40;100.00;100037.97;4950363;29;20111;-76
2023/08/28 03:12:51;;;;;;;23.73;16.67;;;11.20;99.90;;;12.37;100.00;100047.50;4941122;29;20043;-77
2023/08/28 03:15:17;;;;;;;23.98;16.83;;;11.20;99.90;;;12.24;100.00;100045.03;4949973;29;20455;-77
2023/08/28 03:17:43;;;;;;;28.45;17.98;;;11.20;99.90;;;12.28;100.00;100042.66;4951371;28;20509;-77
2023/08/28 03:20:10;;;;;;;25.85;16.88;;;11.20;99.90;;;12.26;100.00;100044.81;4943234;28;20051;-77
2023/08/28 03:22:36;;;;;;;24.67;16.80;;;11.20;99.90;;;12.20;100.00;100047.44;4950033;29;20043;-77
2023/08/28 03:25:02;;;;;;;27.38;18.05;;;11.20;99.90;;;12.19;100.00;100043.00;4945874;29;20439;-76
2023/08/28 03:27:29;;;;;;;26.23;18.00;;;11.20;99.90;;;12.20;100.00;100050.19;4944971;29;20517;-76
2023/08/28 03:29:55;;;;;;;29.02;17.95;;;11.20;99.90;;;12.18;100.00;100044.09;4951646;28;20043;-77
2023/08/28 03:32:20;;;;;;;26.88;17.85;;;11.20;99.90;;;12.17;100.00;100044.34;4933289;29;20050;-76
2023/08/28 03:34:48;;;;;;;30.08;18.73;;;11.10;99.90;;;12.18;100.00;100054.22;4941442;29;20088;-76
2023/08/28 03:37:14;;;;;;;25.63;18.40;;;11.20;99.90;;;12.15;100.00;100054.69;4941820;28;20122;-77
2023/08/28 03:39:39;;;;;;;32.17;20.00;;;11.10;99.90;;;12.13;100.00;100052.19;4940990;29;20040;-77
2023/08/28 03:42:05;;;;;;;30.45;20.73;;;11.20;99.90;;;12.11;100.00;100039.84;4946955;28;20095;-77
2023/08/28 03:44:31;;;;;;;31.85;20.23;;;11.20;99.90;;;12.11;100.00;100043.41;4945537;29;20039;-76
2023/08/28 03:46:57;;;;;;;32.45;20.63;;;11.10;99.90;;;12.14;100.00;100025.69;4950737;28;20046;-76
2023/08/28 03:49:25;;;;;;;30.80;20.23;;;11.20;99.90;;;12.20;100.00;100025.56;4949582;29;20051;-76
2023/08/28 03:51:52;;;;;;;33.13;20.52;;;11.20;99.90;;;12.20;100.00;100025.56;4947375;29;20043;-76
2023/08/28 03:54:18;;;;;;;29.52;21.05;;;11.10;99.90;;;12.17;100.00;100031.50;4942323;28;20045;-76
2023/08/28 03:56:44;;;;;;;32.92;21.67;;;11.10;99.90;;;12.18;100.00;100032.34;4933035;29;20035;-77
2023/08/28 03:59:11;;;;;;;35.88;22.20;;;11.20;99.90;;;12.16;100.00;100007.97;4936773;29;20047;-76
2023/08/28 04:01:37;;;;;;;33.28;20.95;;;11.20;99.90;;;12.17;100.00;100020.56;4933260;29;20408;-76
2023/08/28 04:04:05;;;;;;;33.35;21.33;;;11.10;99.90;;;12.16;100.00;100018.09;4941537;28;20416;-76
2023/08/28 04:06:30;;;;;;;30.33;20.80;;;11.10;99.90;;;12.14;100.00;100012.03;4954265;28;20130;-76
2023/08/28 04:08:56;;;;;;;34.85;21.45;;;11.10;99.90;;;12.17;100.00;99995.13;4944623;28;20034;-76
2023/08/28 04:11:23;;;;;;;32.37;20.20;;;11.10;99.90;;;12.11;100.00;99990.66;4933503;28;20376;-76
2023/08/28 04:13:50;;;;;;;34.92;22.25;;;11.00;99.90;;;12.11;100.00;99980.53;4947676;29;20035;-77
2023/08/28 04:16:18;;;;;;;34.45;21.58;;;11.00;99.90;;;12.11;100.00;99983.25;4946027;28;20040;-76
2023/08/28 04:18:44;;;;;;;38.00;22.73;;;11.00;99.90;;;12.06;100.00;99983.97;4946613;29;20055;-76
2023/08/28 04:21:10;;;;;;;37.58;23.50;;;10.90;99.90;;;12.09;100.00;99977.19;4943015;29;20031;-77
2023/08/28 04:23:35;;;;;;;38.10;23.35;;;11.00;99.90;;;12.11;100.00;99972.31;4939174;29;20040;-76
2023/08/28 04:26:01;;;;;;;35.40;22.60;;;11.00;99.90;;;12.06;100.00;99959.38;4949475;29;20457;-77
2023/08/28 04:28:29;;;;;;;38.85;23.70;;;11.10;99.90;;;12.18;100.00;99972.19;4945629;29;20043;-76
2023/08/28 04:30:55;;;;;;;35.13;22.90;;;11.10;99.90;;;12.21;100.00;99972.53;4943187;28;20122;-77
2023/08/28 04:33:21;;;;;;;37.38;22.98;;;11.10;99.90;;;12.23;100.00;99975.84;4941133;28;20075;-76
2023/08/28 04:35:47;;;;;;;34.22;22.27;;;11.10;99.90;;;12.30;100.00;99969.41;4946138;28;20043;-77
2023/08/28 04:38:14;;;;;;;33.27;21.40;;;11.10;99.90;;;12.20;100.00;99953.63;4951034;28;20027;-76
2023/08/28 04:40:41;;;;;;;32.83;22.00;;;11.20;99.90;;;12.33;100.00;99974.38;4952875;29;20725;-76
2023/08/28 04:43:06;;;;;;;33.17;21.95;;;11.20;99.90;;;12.32;100.00;99980.91;4932755;29;20043;-75
2023/08/28 04:45:32;;;;;;;36.88;22.02;;;11.20;99.90;;;12.30;100.00;99980.34;4939623;29;20032;-77
2023/08/28 04:47:58;;;;;;;32.38;21.05;;;11.20;99.90;;;12.31;100.00;99988.28;4942407;29;20035;-77
2023/08/28 04:50:23;;;;;;;33.63;21.48;;;11.20;99.90;;;12.32;100.00;99976.25;4944813;28;20476;-77
2023/08/28 04:52:49;;;;;;;28.40;20.45;;;11.20;99.90;;;12.34;100.00;99970.56;4943935;29;20054;-77
2023/08/28 04:55:15;;;;;;;29.83;20.52;;;11.20;99.90;;;12.31;100.00;99982.81;4945900;29;20098;-77
2023/08/28 04:57:41;;;;;;;33.67;22.05;;;11.20;99.90;;;12.34;100.00;99982.34;4956047;28;20032;-76
2023/08/28 05:00:07;;;;;;;39.75;20.33;;;11.10;99.90;;;12.34;100.00;99992.44;4951140;28;20500;-79
2023/08/28 05:02:33;;;;;;;32.42;20.45;;;11.20;99.90;;;12.28;100.00;99994.25;4934585;29;20036;-79
2023/08/28 05:04:59;;;;;;;36.28;20.85;;;11.10;99.90;;;12.31;100.00;100001.13;4941067;29;20039;-80
2023/08/28 05:07:26;;;;;;;32.40;19.83;;;11.20;99.90;;;12.25;100.00;99986.53;4940100;29;20035;-77
2023/08/28 05:09:52;;;;;;;34.55;22.52;;;11.20;99.90;;;12.33;100.00;100001.72;4943623;29;20035;-78
2023/08/28 05:12:18;;;;;;;41.13;23.35;;;11.30;99.90;;;12.30;100.00;99980.34;4939579;29;20036;-78
2023/08/28 05:14:44;;;;;;;36.00;22.58;;;11.30;99.90;;;12.39;100.00;99995.28;4941369;28;20046;-79
2023/08/28 05:17:10;;;;;;;36.85;23.33;;;11.40;99.90;;;12.51;100.00;100004.28;4947584;29;20038;-76
2023/08/28 05:19:35;;;;;;;39.58;24.20;;;11.40;99.90;;;12.56;100.00;99998.03;4950477;29;20054;-78
2023/08/28 05:22:01;;;;;;;41.17;25.45;;;11.50;99.90;;;12.66;100.00;100008.34;4965135;28;20488;-76
2023/08/28 05:24:27;;;;;;;35.58;23.73;;;11.60;99.90;;;12.67;100.00;100007.25;4947090;29;20047;-77
2023/08/28 05:26:53;;;;;;;37.85;24.10;;;11.70;99.90;;;12.74;100.00;100013.44;4944216;29;20560;-77
2023/08/28 05:29:19;;;;;;;34.67;22.85;;;11.70;99.90;;;12.72;100.00;100007.34;4952163;28;20051;-76
2023/08/28 05:31:45;;;;;;;39.42;23.02;;;11.80;99.90;;;12.87;100.00;100027.88;4947327;29;20038;-80
2023/08/28 05:34:11;;;;;;;41.10;24.67;;;11.80;99.90;;;12.91;100.00;100039.97;4941308;29;20387;-80
2023/08/28 05:36:37;;;;;;;48.45;25.98;;;11.90;99.90;;;12.93;100.00;100038.66;4940214;28;20110;-78
2023/08/28 05:39:03;;;;;;;49.20;27.67;;;12.00;99.90;;;13.04;100.00;100050.63;4941570;29;20495;-78
2023/08/28 05:41:30;;;;;;;45.75;27.15;;;12.10;99.90;;;13.16;100.00;100060.66;4943474;29;20031;-78
2023/08/28 05:43:56;;;;;;;47.58;26.58;;;12.10;99.90;;;13.16;100.00;100055.19;4953238;29;20189;-80
2023/08/28 05:46:22;;;;;;;43.47;25.85;;;12.20;99.90;;;13.37;100.00;100075.50;4952210;29;20035;-79
2023/08/28 05:48:48;;;;;;;40.03;23.60;;;12.30;99.90;;;13.35;100.00;100086.72;4961149;28;20413;-79
2023/08/28 05:51:14;;;;;;;43.70;23.98;;;12.40;99.90;;;13.50;100.00;100097.13;4937100;29;20028;-78
2023/08/28 05:53:41;;;;;;;32.00;22.92;;;12.50;99.90;;;13.48;100.00;100096.56;4941070;29;20035;-80
2023/08/28 05:56:07;;;;;;;36.40;23.15;;;12.50;99.90;;;13.57;100.00;100112.56;4949312;29;20032;-79
2023/08/28 05:58:32;;;;;;;30.35;22.17;;;12.60;99.90;;;13.69;100.00;100121.53;4948120;29;20039;-78
2023/08/28 06:00:58;;;;;;;30.77;21.25;;;12.80;99.90;;;13.81;100.00;100118.72;4953715;29;20027;-78
2023/08/28 06:03:24;;;;;;;26.75;20.63;;;12.80;99.90;;;14.01;100.00;100136.53;4953076;28;20042;-80
2023/08/28 06:05:50;;;;;;;29.77;21.25;;;12.90;99.90;;;13.97;100.00;100151.81;4951849;29;20032;-79
2023/08/28 06:08:16;;;;;;;28.95;19.98;;;13.00;99.90;;;14.14;100.00;100171.00;4953537;28;20045;-79
2023/08/28 06:10:42;;;;;;;26.15;19.45;;;13.10;99.90;;;14.06;100.00;100155.81;4941240;29;20496;-80
2023/08/28 06:13:10;;;;;;;27.73;19.42;;;13.20;99.90;;;14.27;100.00;100175.28;4946426;29;20134;-79
2023/08/28 06:15:36;;;;;;;26.50;17.95;;;13.40;99.90;;;14.36;100.00;100184.75;4951311;29;20062;-78
2023/08/28 06:18:02;;;;;;;25.77;17.35;;;13.50;99.90;;;14.54;100.00;100186.38;4947031;29;20039;-78
2023/08/28 06:20:28;;;;;;;28.95;18.52;;;13.60;99.90;;;14.44;100.00;100184.31;4946511;29;20106;-79
2023/08/28 06:22:54;;;;;;;27.00;17.20;;;13.60;99.90;;;14.52;100.00;100194.84;4926336;29;20509;-79
2023/08/28 06:25:19;;;;;;;22.20;16.02;;;13.70;99.90;;;14.67;100.00;100207.13;4943276;28;20643;-78
2023/08/28 06:27:45;;;;;;;25.33;16.05;;;13.80;99.90;;;14.79;100.00;100218.00;4945599;28;20039;-79
2023/08/28 06:30:11;;;;;;;22.38;16.17;;;13.90;99.90;;;14.94;100.00;100220.09;4952884;28;20039;-79
2023/08/28 06:32:37;;;;;;;18.38;14.77;;;14.00;99.90;;;14.97;100.00;100236.06;4946428;29;20043;-79
2023/08/28 06:35:04;;;;;;;19.38;14.43;;;14.00;99.90;;;15.02;100.00;100232.56;4941575;28;20484;-77
2023/08/28 06:37:29;;;;;;;21.20;15.30;;;14.10;99.90;;;15.04;100.00;100238.63;4947691;28;20043;-77
2023/08/28 06:39:55;;;;;;;17.17;13.70;;;14.20;99.90;;;15.23;100.00;100241.84;4948998;28;20094;-80
2023/08/28 06:42:21;;;;;;;21.23;15.20;;;14.30;99.90;;;15.49;100.00;100233.88;4953322;28;20046;-79
2023/08/28 06:44:47;;;;;;;18.60;14.13;;;14.40;99.90;;;15.56;100.00;100242.72;4961494;28;20134;-78
2023/08/28 06:47:13;;;;;;;17.20;14.45;;;14.50;99.90;;;15.68;100.00;100246.16;4947235;29;20463;-79
2023/08/28 06:49:39;;;;;;;20.40;14.90;;;14.60;99.90;;;15.92;100.00;100243.09;4952097;29;20042;-79
2023/08/28 06:52:05;;;;;;;17.73;14.20;;;14.70;99.90;;;15.77;100.00;100253.94;4946165;28;20465;-80
2023/08/28 06:54:32;;;;;;;17.63;13.50;;;14.80;99.90;;;15.93;100.00;100260.41;4947916;29;20047;-79
2023/08/28 06:56:58;;;;;;;17.90;13.73;;;14.90;99.90;;;15.81;100.00;100257.81;4944806;29;20046;-78
2023/08/28 06:59:24;;;;;;;17.60;13.55;;;14.90;99.90;;;15.83;100.00;100255.63;4946957;29;20039;-79
2023/08/28 07:01:50;;;;;;;18.95;14.13;;;14.90;99.90;;;16.03;100.00;100256.94;4946883;29;20440;-78
2023/08/28 07:04:16;;;;;;;21.55;14.95;;;15.00;99.90;;;15.70;100.00;100251.38;4945586;28;20035;-78
2023/08/28 07:06:41;;;;;;;20.60;14.85;;;14.90;99.90;;;15.91;100.00;100255.19;4951584;28;20035;-78
2023/08/28 07:09:07;;;;;;;18.90;14.70;;;15.00;99.90;;;16.18;100.00;100270.81;4943924;28;20065;-78
2023/08/28 07:11:33;;;;;;;20.48;14.50;;;15.10;99.90;;;16.30;100.00;100270.59;4946050;28;20036;-78
2023/08/28 07:13:59;;;;;;;16.00;13.82;;;15.20;99.90;;;16.29;100.00;100270.88;4947169;28;20043;-78
2023/08/28 07:16:25;;;;;;;15.13;12.52;;;15.40;99.90;;;16.49;100.00;100262.75;4951466;29;20035;-80
2023/08/28 07:18:50;;;;;;;15.07;11.10;;;15.50;99.90;;;16.59;100.00;100264.75;4942240;29;20090;-79
2023/08/28 07:21:16;;;;;;;13.32;10.98;;;15.60;99.90;;;16.61;100.00;100276.31;4947206;28;20054;-78
2023/08/28 07:23:42;;;;;;;12.85;9.90;;;15.70;99.90;;;16.39;100.00;100260.78;4947655;29;20035;-77
2023/08/28 07:26:08;;;;;;;13.48;9.95;;;15.70;99.90;;;16.36;100.00;100260.47;4944071;29;20163;-77
2023/08/28 07:28:34;;;;;;;12.48;10.02;;;15.70;99.90;;;16.60;100.00;100258.16;4952743;29;20039;-77
2023/08/28 07:31:01;;;;;;;13.50;8.82;;;15.70;99.90;;;16.68;100.00;100281.56;4944871;29;20043;-77
2023/08/28 07:33:27;;;;;;;13.23;9.00;;;15.80;99.90;;;16.36;100.00;100271.47;4947534;29;20078;-78
2023/08/28 07:35:53;;;;;;;9.93;8.30;;;15.80;99.90;;;16.34;100.00;100265.41;4941035;29;20166;-76
2023/08/28 07:38:19;;;;;;;10.43;8.60;;;15.80;99.90;;;16.69;100.00;100277.72;4951805;28;20082;-79
2023/08/28 07:40:48;;;;;;;12.15;8.15;;;15.90;99.90;;;16.93;100.00;100274.53;4949674;29;20057;-77
2023/08/28 07:43:14;;;;;;;10.13;6.72;;;16.10;99.90;;;16.92;100.00;100278.41;4945747;29;20135;-75
2023/08/28 07:45:39;;;;;;;9.18;6.85;;;16.20;99.90;;;16.58;100.00;100279.63;4944855;29;20502;-75
2023/08/28 07:48:06;;;;;;;7.90;5.90;;;16.20;99.90;;;17.14;100.00;100281.03;4945944;28;20511;-75
2023/08/28 07:50:31;;;;;;;9.88;5.82;;;16.30;99.90;;;17.35;100.00;100281.91;4946566;29;20043;-76
2023/08/28 07:52:58;;;;;;;8.80;5.72;;;16.50;99.90;;;16.94;100.00;100295.47;4946022;28;20043;-76
2023/08/28 07:55:24;;;;;;;8.73;5.32;;;16.50;99.90;;;17.09;100.00;100297.50;4945518;29;20178;-76
2023/08/28 07:57:50;;;;;;;9.30;5.25;;;16.50;99.90;;;16.98;100.00;100282.88;4951280;29;20035;-77
2023/08/28 08:00:19;;;;;;;12.60;5.40;;;16.50;99.90;;;17.18;100.00;100293.16;4942675;29;20040;-76
2023/08/28 08:02:46;;;;;;;8.88;4.82;;;16.60;99.90;;;17.53;100.00;100282.50;4939473;29;20530;-76
2023/08/28 08:05:12;;;;;;;8.55;4.80;;;16.80;99.90;;;17.39;100.00;100294.03;4940950;29;20091;-77
2023/08/28 08:07:39;;;;;;;6.38;3.78;;;16.90;99.90;;;17.78;100.00;100303.78;4950421;28;20042;-75
2023/08/28 08:10:08;;;;;;;6.70;3.77;;;17.10;99.90;;;17.86;100.00;100285.84;4949642;29;20131;-76
2023/08/28 08:12:34;;;;;;;8.32;2.97;;;17.30;99.90;;;17.87;100.00;100298.56;4952917;28;20309;-76
2023/08/28 08:15:00;;;;;;;7.47;3.05;;;17.40;99.90;;;18.01;100.00;100307.16;4950873;28;20035;-76
2023/08/28 08:17:26;;;;;;;5.25;2.85;;;17.40;99.90;;;17.73;100.00;100309.28;4949434;29;20043;-77
2023/08/28 08:19:51;;;;;;;8.32;3.38;;;17.50;99.90;;;17.57;100.00;100313.94;4952157;29;20040;-77
2023/08/28 08:22:17;;;;;;;6.10;2.85;;;17.40;99.90;;;17.88;100.00;100310.41;4966468;28;20488;-75
2023/08/28 08:24:43;;;;;;;6.45;3.08;;;17.50;99.90;;;18.39;100.00;100310.44;4954878;29;20050;-75
2023/08/28 08:27:09;;;;;;;7.40;3.15;;;17.60;99.90;;;18.23;100.00;100314.34;4953204;29;20046;-76
2023/08/28 08:29:34;;;;;;;6.97;3.20;;;17.70;99.90;;;18.28;100.00;100313.47;4942144;28;20036;-75
2023/08/28 08:32:00;;;;;;;4.40;2.88;;;17.70;99.90;;;18.02;100.00;100319.00;4941161;29;20484;-75
2023/08/28 08:34:26;;;;;;;6.80;3.10;;;17.70;99.90;;;17.74;100.00;100313.72;4934905;29;20036;-75
2023/08/28 08:36:52;;;;;;;8.20;3.50;;;17.60;99.90;;;17.87;100.00;100305.97;4939516;28;20043;-75
2023/08/28 08:39:18;;;;;;;4.63;3.13;;;17.60;99.90;;;18.40;100.00;100319.56;4937168;28;20040;-76
2023/08/28 08:41:43;;;;;;;7.70;2.88;;;17.80;99.90;;;18.78;100.00;100309.00;4938680;29;20063;-76
2023/08/28 08:44:09;;;;;;;4.45;2.60;;;18.00;99.90;;;19.05;100.00;100318.88;4938266;29;20115;-76
2023/08/28 08:46:35;;;;;;;5.82;2.38;;;18.30;99.90;;;18.99;100.00;100303.44;4938018;29;20032;-75
2023/08/28 08:49:04;;;;;;;6.43;2.33;;;18.50;99.90;;;19.62;100.00;100326.09;4938283;29;20081;-76
2023/08/28 08:51:32;;;;;;;4.18;2.00;;;18.80;99.90;;;19.80;100.00;100333.75;4938683;29;20047;-76
2023/08/28 08:54:20;;;;;;;5.95;2.20;;;19.00;99.90;;;19.83;100.00;100330.41;4942344;29;20042;-76
2023/08/28 08:56:53;;;;;;;3.58;1.70;;;19.10;99.90;;;19.39;100.00;100323.75;4938806;29;20039;-76
2023/08/28 08:59:24;;;;;;;4.55;1.55;;;18.90;99.90;;;19.23;100.00;100334.03;4938774;28;20051;-76
2023/08/28 09:01:50;;;;;;;4.03;1.60;;;18.80;99.90;;;18.55;100.00;100332.53;4938312;29;20040;-77
2023/08/28 09:04:17;;;;;;;5.93;1.80;;;18.50;99.90;;;18.34;100.00;100334.50;4944340;29;20061;-75
2023/08/28 09:06:43;;;;;;;7.25;2.58;;;18.30;99.90;;;19.07;100.00;100341.53;4950848;28;20051;-74
2023/08/28 09:09:11;;;;;;;3.13;1.67;;;18.60;99.90;;;19.56;100.00;100339.13;4950976;28;20114;-75
2023/08/28 09:11:40;;;;;;;;;;;18.90;99.90;;;19.69;100.00;100338.50;4950476;29;20031;-75
2023/08/28 09:14:06;;;;;;;3.47;1.40;;;19.10;99.90;;;20.37;100.00;100346.34;4938562;29;20322;-75
2023/08/28 09:16:34;;;;;;;6.63;2.20;;;19.60;99.90;;;20.36;100.00;100347.47;4938185;28;20761;-76
2023/08/28 09:19:00;;;;;;;3.90;1.67;;;19.90;99.90;;;19.72;100.00;100348.16;4948286;28;20047;-76
2023/08/28 09:21:27;;;;;;;2.72;1.70;;;19.80;99.90;;;20.21;100.00;100354.81;4943674;29;20043;-76
2023/08/28 09:23:53;;;;;;;3.92;2.00;;;19.90;99.90;;;19.44;100.00;100361.59;4943233;29;20126;-76
2023/08/28 09:26:22;;;;;;;5.88;1.70;;;19.60;99.90;;;20.65;100.00;100357.72;4941992;29;20047;-75
2023/08/28 09:29:00;;;;;;;4.78;1.50;;;19.90;99.90;;;21.18;100.00;100354.16;4942697;29;20392;-76
2023/08/28 09:31:35;;;;;;;4.53;2.40;;;20.20;99.90;;;21.23;100.00;100356.06;4938199;29;20044;-76
2023/08/28 09:34:03;;;;;;;3.47;1.70;;;20.40;99.90;;;21.46;100.00;100359.91;4942878;29;20043;-76
2023/08/28 09:36:37;;;;;;;3.88;2.10;;;20.60;99.90;;;20.57;100.00;100361.13;4940222;28;20028;-76
2023/08/28 09:39:05;;;;;;;3.97;1.85;;;;;;;20.15;100.00;100361.47;4954279;28;20039;-76
2023/08/28 09:41:48;;;;;;;4.30;2.17;;;;;;;20.58;100.00;100358.09;4939192;28;20510;-76
2023/08/28 09:44:16;;;;;;;4.18;1.85;;;;;;;21.45;100.00;100358.25;4938188;29;20043;-77
2023/08/28 09:46:43;;;;;;;;;;;;;;;21.69;100.00;100362.97;4937904;29;20491;-75
2023/08/28 09:49:10;;;;;;;5.85;2.15;;;;;;;21.87;100.00;100353.00;4940798;29;19938;-75
2023/08/28 09:51:48;;;;;;;4.50;2.10;;;;;;;20.33;100.00;100346.13;4937663;29;20047;-76
2023/08/28 09:54:15;;;;;;;5.05;3.08;;;;;;;20.29;100.00;100345.06;4959045;28;20048;-76
2023/08/28 09:56:42;;;;;;;4.32;2.58;;;;;;;20.75;100.00;100338.25;4942296;28;20028;-76
2023/08/28 09:59:10;;;;;;;4.78;2.30;;;;;;;21.56;100.00;100334.78;4942752;28;20142;-76
2023/08/28 10:01:37;;;;;;;3.92;2.00;;;;;;;21.96;100.00;100342.03;4945155;28;20051;-76
2023/08/28 10:04:13;;;;;;;4.43;2.53;;;;;;;22.51;100.00;100351.72;4947787;28;20048;-76